Time;durP1;ratioP1;P1;durP2;ratioP2;P2;SDS_P1;SDS_P2;PMS_P1;PMS_P2;Temp;Humidity;BMP_temperature;BMP_pressure;BME280_temperature;BME280_humidity;BME280_pressure;Samples;Min_cycle;Max_cycle;Signal;HPM_P1;HPM_P2
2021/08/08 00:01:15;;;;;;;1.13;0.40;;;14.90;99.90;;;;;;5039781;28;20233;-83
2021/08/08 00:03:41;;;;;;;0.40;0.40;;;14.90;99.90;;;;;;5041266;28;20237;-83
2021/08/08 00:06:07;;;;;;;1.87;0.50;;;14.90;99.90;;;;;;5039516;28;20198;-83
2021/08/08 00:08:33;;;;;;;0.77;0.50;;;14.90;99.90;;;;;;5040467;28;20735;-83
2021/08/08 00:10:59;;;;;;;2.33;0.63;;;14.90;99.90;;;;;;5039124;28;20190;-83
2021/08/08 00:13:26;;;;;;;1.53;0.80;;;14.90;99.90;;;;;;5039716;28;20182;-83
2021/08/08 00:15:52;;;;;;;0.80;0.63;;;14.90;99.90;;;;;;5040059;28;20668;-83
2021/08/08 00:18:18;;;;;;;0.53;0.37;;;15.00;99.90;;;;;;5040286;28;20170;-83
2021/08/08 00:20:44;;;;;;;0.93;0.30;;;14.90;99.90;;;;;;5038253;28;20198;-83
2021/08/08 00:23:10;;;;;;;0.50;0.50;;;14.90;99.90;;;;;;5038508;28;20186;-83
2021/08/08 00:25:36;;;;;;;0.50;0.50;;;14.90;99.90;;;;;;5039931;28;20217;-83
2021/08/08 00:28:02;;;;;;;1.03;0.60;;;14.80;99.90;;;;;;5040849;28;20546;-83
2021/08/08 00:30:28;;;;;;;0.40;0.40;;;14.90;99.90;;;;;;5042675;28;20197;-83
2021/08/08 00:32:54;;;;;;;1.97;0.40;;;14.90;99.90;;;;;;5040882;28;20179;-83
2021/08/08 00:35:20;;;;;;;0.73;0.50;;;14.90;99.90;;;;;;5040309;28;20202;-83
2021/08/08 00:37:48;;;;;;;1.90;0.50;;;14.90;99.90;;;;;;5040741;28;20674;-83
2021/08/08 00:40:18;;;;;;;0.30;0.30;;;14.90;99.90;;;;;;5041274;28;20182;-83
2021/08/08 00:42:46;;;;;;;0.63;0.37;;;14.90;99.90;;;;;;5039024;28;20294;-83
2021/08/08 00:45:14;;;;;;;0.40;0.40;;;14.90;99.90;;;;;;5039793;28;20737;-83
2021/08/08 00:47:39;;;;;;;2.67;0.50;;;14.90;99.90;;;;;;5038827;28;20182;-83
2021/08/08 00:50:05;;;;;;;0.90;0.50;;;14.90;99.90;;;;;;5040068;28;20170;-82
2021/08/08 00:52:33;;;;;;;0.67;0.50;;;15.00;99.90;;;;;;5038075;28;20174;-83
2021/08/08 00:54:59;;;;;;;0.43;0.43;;;14.90;99.90;;;;;;5041768;28;20202;-84
2021/08/08 00:57:25;;;;;;;2.10;0.43;;;15.00;99.90;;;;;;5042798;28;20654;-83
2021/08/08 00:59:51;;;;;;;0.30;0.30;;;15.00;99.90;;;;;;5042436;28;20694;-83
2021/08/08 01:02:22;;;;;;;0.50;0.50;;;14.90;99.90;;;;;;5040791;28;20198;-84
2021/08/08 01:05:01;;;;;;;0.50;0.50;;;15.00;99.90;;;;;;5040847;28;20198;-83
2021/08/08 01:07:31;;;;;;;1.43;0.30;;;15.00;99.90;;;;;;5041051;28;20204;-83
2021/08/08 01:10:01;;;;;;;0.40;0.30;;;14.90;99.90;;;;;;5040237;28;20174;-83
2021/08/08 01:12:27;;;;;;;1.33;0.30;;;14.90;99.90;;;;;;5042223;28;20170;-83
2021/08/08 01:14:54;;;;;;;0.47;0.47;;;14.90;99.90;;;;;;5041838;28;20193;-83
2021/08/08 01:17:21;;;;;;;0.70;0.43;;;14.90;99.90;;;;;;5042185;28;20166;-84
2021/08/08 01:19:54;;;;;;;0.73;0.50;;;14.80;99.90;;;;;;5041006;28;20175;-83
2021/08/08 01:22:20;;;;;;;0.43;0.43;;;14.80;99.90;;;;;;5041811;28;20289;-83
2021/08/08 01:24:46;;;;;;;0.80;0.40;;;14.80;99.90;;;;;;5039881;28;20503;-83
2021/08/08 01:27:13;;;;;;;0.50;0.50;;;14.60;99.90;;;;;;5040175;28;20727;-83
2021/08/08 01:29:39;;;;;;;0.50;0.40;;;14.60;99.90;;;;;;5041978;28;20644;-83
2021/08/08 01:32:05;;;;;;;2.70;0.90;;;14.50;99.90;;;;;;5040205;28;20182;-84
2021/08/08 01:34:31;;;;;;;0.97;0.60;;;14.50;99.90;;;;;;5041290;28;20181;-83
2021/08/08 01:36:57;;;;;;;0.50;0.50;;;14.40;99.90;;;;;;5041838;28;20182;-83
2021/08/08 01:39:23;;;;;;;2.83;0.50;;;14.40;99.90;;;;;;5041180;28;20181;-83
2021/08/08 01:41:54;;;;;;;0.60;0.50;;;14.40;99.90;;;;;;5041356;28;20202;-83
2021/08/08 01:44:21;;;;;;;2.50;0.43;;;14.30;99.90;;;;;;5040446;28;20240;-84
2021/08/08 01:46:55;;;;;;;2.67;0.60;;;14.30;99.90;;;;;;5039994;28;20194;-83
2021/08/08 01:49:24;;;;;;;1.27;0.67;;;14.30;99.90;;;;;;5041477;28;20178;-83
2021/08/08 01:51:54;;;;;;;0.80;0.50;;;14.30;99.90;;;;;;5040699;28;20209;-83
2021/08/08 01:54:20;;;;;;;0.73;0.43;;;14.30;99.90;;;;;;5041823;28;20182;-84
2021/08/08 01:56:47;;;;;;;1.37;0.50;;;14.30;99.90;;;;;;5041348;28;20202;-83
2021/08/08 01:59:13;;;;;;;2.27;0.60;;;14.30;99.90;;;;;;5040965;28;20273;-83
2021/08/08 02:01:40;;;;;;;0.87;0.60;;;14.20;99.90;;;;;;5040851;28;20206;-83
2021/08/08 02:04:19;;;;;;;1.03;0.73;;;14.30;99.90;;;;;;5041546;28;20170;-83
2021/08/08 02:06:45;;;;;;;2.10;0.87;;;14.30;99.90;;;;;;5041435;28;20284;-83
2021/08/08 02:09:11;;;;;;;4.03;0.93;;;14.30;99.90;;;;;;5042798;28;20573;-84
2021/08/08 02:11:37;;;;;;;0.90;0.70;;;14.40;99.90;;;;;;5042184;28;20186;-84
2021/08/08 02:14:03;;;;;;;2.30;0.60;;;14.40;99.90;;;;;;5040978;28;20192;-84
2021/08/08 02:16:31;;;;;;;0.60;0.60;;;14.40;99.90;;;;;;5042094;28;20194;-83
2021/08/08 02:18:56;;;;;;;0.40;0.40;;;14.50;99.90;;;;;;5042803;28;20182;-83
2021/08/08 02:21:22;;;;;;;0.73;0.50;;;14.50;99.90;;;;;;5039452;28;20220;-83
2021/08/08 02:23:47;;;;;;;1.50;0.63;;;14.50;99.90;;;;;;5040401;28;20186;-83
2021/08/08 02:26:13;;;;;;;2.03;0.50;;;14.50;99.90;;;;;;5040781;28;20205;-84
2021/08/08 02:28:39;;;;;;;1.03;0.80;;;14.50;99.90;;;;;;5041423;28;20696;-83
2021/08/08 02:31:04;;;;;;;1.00;0.60;;;14.50;99.90;;;;;;5043090;28;20620;-83
2021/08/08 02:33:30;;;;;;;2.80;0.97;;;14.60;99.90;;;;;;5048589;28;20192;-83
2021/08/08 02:35:56;;;;;;;2.20;0.60;;;14.60;99.90;;;;;;5051064;28;20229;-83
2021/08/08 02:38:21;;;;;;;0.50;0.50;;;14.60;99.90;;;;;;5052027;28;20270;-83
2021/08/08 02:40:47;;;;;;;1.37;0.67;;;14.60;99.90;;;;;;5045718;28;20178;-83
2021/08/08 02:43:13;;;;;;;1.20;0.60;;;14.60;99.90;;;;;;5039243;28;20182;-83
2021/08/08 02:45:38;;;;;;;0.57;0.40;;;14.60;99.90;;;;;;5039145;28;20297;-83
2021/08/08 02:48:04;;;;;;;0.97;0.50;;;14.60;99.90;;;;;;5040286;28;20174;-83
2021/08/08 02:50:30;;;;;;;0.57;0.40;;;14.50;99.90;;;;;;5041381;28;20230;-83
2021/08/08 02:52:56;;;;;;;0.60;0.60;;;14.50;99.90;;;;;;5040166;28;20206;-83
2021/08/08 02:55:21;;;;;;;0.83;0.50;;;14.50;99.90;;;;;;5040444;28;20194;-83
2021/08/08 02:57:48;;;;;;;0.90;0.60;;;14.40;99.90;;;;;;5040691;28;20202;-83
2021/08/08 03:00:15;;;;;;;0.63;0.50;;;14.40;99.90;;;;;;5041056;28;20202;-83
2021/08/08 03:02:40;;;;;;;0.43;0.43;;;14.40;99.90;;;;;;5039430;28;20206;-83
2021/08/08 03:05:06;;;;;;;3.70;0.70;;;14.40;99.90;;;;;;5040919;28;20194;-83
2021/08/08 03:07:32;;;;;;;1.80;0.67;;;14.40;99.90;;;;;;5040247;28;20178;-84
2021/08/08 03:09:58;;;;;;;0.50;0.50;;;14.40;99.90;;;;;;5041339;28;20178;-84
2021/08/08 03:12:23;;;;;;;1.23;0.70;;;14.40;99.90;;;;;;5040451;28;20683;-83
2021/08/08 03:14:49;;;;;;;1.10;0.90;;;14.40;99.90;;;;;;5040171;28;20198;-84
2021/08/08 03:17:15;;;;;;;2.00;0.70;;;14.40;99.90;;;;;;5039918;28;20208;-83
2021/08/08 03:19:40;;;;;;;1.67;0.83;;;14.40;99.90;;;;;;5041078;28;20170;-83
2021/08/08 03:22:06;;;;;;;1.17;0.80;;;14.50;99.90;;;;;;5040754;28;20198;-83
2021/08/08 03:24:32;;;;;;;2.30;0.90;;;14.50;99.90;;;;;;5041090;28;20205;-83
2021/08/08 03:26:58;;;;;;;1.20;0.80;;;14.50;99.90;;;;;;5039894;28;20200;-83
2021/08/08 03:29:24;;;;;;;1.97;0.60;;;14.50;99.90;;;;;;5040445;28;20226;-83
2021/08/08 03:31:49;;;;;;;0.93;0.60;;;14.50;99.90;;;;;;5040483;28;20285;-84
2021/08/08 03:34:15;;;;;;;1.07;0.60;;;14.50;99.90;;;;;;5042613;28;20197;-83
2021/08/08 03:36:40;;;;;;;2.07;0.60;;;14.50;99.90;;;;;;5043949;28;20214;-83
2021/08/08 03:39:06;;;;;;;2.40;0.60;;;14.50;99.90;;;;;;5043774;28;20587;-83
2021/08/08 03:41:32;;;;;;;1.53;0.57;;;14.50;99.90;;;;;;5042991;28;20213;-83
2021/08/08 03:43:57;;;;;;;2.57;0.60;;;14.40;99.90;;;;;;5043050;28;20174;-83
2021/08/08 03:46:23;;;;;;;1.30;0.53;;;14.50;99.90;;;;;;5042787;28;20340;-83
2021/08/08 03:48:49;;;;;;;1.00;0.70;;;14.50;99.90;;;;;;5041179;28;20206;-83
2021/08/08 03:51:14;;;;;;;0.67;0.60;;;14.40;99.90;;;;;;5041020;28;20184;-82
2021/08/08 03:53:40;;;;;;;1.10;0.77;;;14.40;99.90;;;;;;5042063;28;20175;-83
2021/08/08 03:56:06;;;;;;;1.10;0.70;;;14.50;99.90;;;;;;5041818;28;20229;-82
2021/08/08 03:58:31;;;;;;;1.33;0.60;;;14.50;99.90;;;;;;5040763;28;20212;-83
2021/08/08 04:01:02;;;;;;;1.53;0.60;;;14.40;99.90;;;;;;5045471;28;20174;-84
2021/08/08 04:03:29;;;;;;;0.57;0.53;;;14.40;99.90;;;;;;5042557;28;20575;-83
2021/08/08 04:05:55;;;;;;;0.77;0.60;;;14.40;99.90;;;;;;5042124;28;20191;-83
2021/08/08 04:08:20;;;;;;;1.83;0.80;;;14.30;99.90;;;;;;5042719;28;20174;-83
2021/08/08 04:10:46;;;;;;;2.33;1.20;;;14.30;99.90;;;;;;5042204;28;20178;-83
2021/08/08 04:13:12;;;;;;;4.10;0.83;;;14.30;99.90;;;;;;5043069;28;20185;-83
2021/08/08 04:15:37;;;;;;;0.93;0.70;;;14.30;99.90;;;;;;5042375;28;20280;-83
2021/08/08 04:18:03;;;;;;;0.60;0.60;;;14.30;99.90;;;;;;5043828;28;20249;-83
2021/08/08 04:20:29;;;;;;;0.87;0.80;;;14.30;99.90;;;;;;5042289;28;20228;-84
2021/08/08 04:22:54;;;;;;;0.90;0.57;;;14.30;99.90;;;;;;5041413;28;20208;-83
2021/08/08 04:25:20;;;;;;;1.27;0.60;;;14.30;99.90;;;;;;5043222;28;20222;-84
2021/08/08 04:27:46;;;;;;;0.63;0.53;;;14.20;99.90;;;;;;5042950;28;20171;-83
2021/08/08 04:30:11;;;;;;;1.53;0.50;;;14.20;99.90;;;;;;5042075;28;20181;-83
2021/08/08 04:32:37;;;;;;;0.67;0.60;;;14.20;99.90;;;;;;5041789;28;20178;-84
2021/08/08 04:35:03;;;;;;;1.60;0.67;;;14.10;99.90;;;;;;5042352;28;20204;-84
2021/08/08 04:37:29;;;;;;;0.60;0.50;;;14.10;99.90;;;;;;5041835;28;20178;-83
2021/08/08 04:39:54;;;;;;;2.43;1.00;;;14.10;99.90;;;;;;5043032;28;20194;-83
2021/08/08 04:42:20;;;;;;;0.90;0.70;;;14.10;99.90;;;;;;5042742;28;20292;-83
2021/08/08 04:44:46;;;;;;;3.00;0.83;;;14.10;99.90;;;;;;5042488;28;20194;-83
2021/08/08 04:47:11;;;;;;;1.17;0.70;;;14.20;99.90;;;;;;5041409;28;20186;-83
2021/08/08 04:49:37;;;;;;;1.70;0.87;;;14.10;99.90;;;;;;5042812;28;20174;-84
2021/08/08 04:52:03;;;;;;;3.30;0.80;;;14.20;99.90;;;;;;5042543;28;20178;-83
2021/08/08 04:54:29;;;;;;;0.97;0.60;;;14.10;99.90;;;;;;5042439;28;20178;-83
2021/08/08 04:56:55;;;;;;;2.97;0.70;;;14.20;99.90;;;;;;5041383;28;20190;-83
2021/08/08 04:59:20;;;;;;;0.90;0.63;;;14.20;99.90;;;;;;5042777;28;20228;-83
2021/08/08 05:01:46;;;;;;;1.00;0.70;;;14.20;99.90;;;;;;5040987;28;20217;-83
2021/08/08 05:04:12;;;;;;;6.00;0.70;;;14.20;99.90;;;;;;5042923;28;20182;-83
2021/08/08 05:06:37;;;;;;;1.37;0.67;;;14.20;99.90;;;;;;5041393;28;20201;-83
2021/08/08 05:09:04;;;;;;;2.53;0.77;;;14.30;99.90;;;;;;5042431;28;20206;-83
2021/08/08 05:11:31;;;;;;;3.17;0.80;;;14.20;99.90;;;;;;5041342;28;20202;-83
2021/08/08 05:13:57;;;;;;;1.23;0.70;;;14.30;99.90;;;;;;5042000;28;20206;-83
2021/08/08 05:16:23;;;;;;;1.43;0.80;;;14.30;99.90;;;;;;5042445;28;20205;-83
2021/08/08 05:18:49;;;;;;;1.10;0.80;;;14.30;99.90;;;;;;5040157;28;20175;-83
2021/08/08 05:21:14;;;;;;;1.33;0.80;;;14.30;99.90;;;;;;5040702;28;20684;-83
2021/08/08 05:23:40;;;;;;;1.43;0.77;;;14.30;99.90;;;;;;5041494;28;20182;-83
2021/08/08 05:26:06;;;;;;;0.83;0.80;;;14.30;99.90;;;;;;5040644;28;20546;-83
2021/08/08 05:28:31;;;;;;;0.60;0.50;;;14.30;99.90;;;;;;5040111;28;20181;-84
2021/08/08 05:30:57;;;;;;;0.60;0.60;;;14.40;99.90;;;;;;5041468;28;20166;-83
2021/08/08 05:33:23;;;;;;;3.20;0.90;;;14.40;99.90;;;;;;5040448;28;20170;-84
2021/08/08 05:35:51;;;;;;;2.23;0.80;;;14.40;99.90;;;;;;5039261;28;20190;-83
2021/08/08 05:38:17;;;;;;;1.90;0.90;;;14.50;99.90;;;;;;5040736;28;20175;-84
2021/08/08 05:40:42;;;;;;;1.73;0.93;;;14.40;99.90;;;;;;5039930;28;20583;-84
2021/08/08 05:43:08;;;;;;;1.40;0.97;;;14.40;99.90;;;;;;5039774;28;20253;-83
2021/08/08 05:45:34;;;;;;;2.97;0.83;;;14.50;99.90;;;;;;5037680;28;20578;-83
2021/08/08 05:47:59;;;;;;;0.80;0.70;;;14.50;99.90;;;;;;5037705;28;20205;-83
2021/08/08 05:50:25;;;;;;;1.70;0.80;;;14.50;99.90;;;;;;5037403;28;20194;-83
2021/08/08 05:52:51;;;;;;;1.80;0.80;;;14.50;99.90;;;;;;5036746;28;20178;-83
2021/08/08 05:55:18;;;;;;;1.73;0.60;;;14.50;99.90;;;;;;5036598;28;20202;-83
2021/08/08 05:57:44;;;;;;;1.10;0.60;;;14.50;99.90;;;;;;5036508;28;20174;-83
2021/08/08 06:00:10;;;;;;;3.03;0.80;;;14.50;99.90;;;;;;5037786;28;20185;-83
2021/08/08 06:02:36;;;;;;;1.07;0.60;;;14.50;99.90;;;;;;5039969;28;20233;-84
2021/08/08 06:05:02;;;;;;;0.60;0.60;;;14.40;99.90;;;;;;5038750;28;20198;-83
2021/08/08 06:07:28;;;;;;;0.97;0.70;;;14.50;99.90;;;;;;5039697;28;20577;-83
2021/08/08 06:09:54;;;;;;;1.93;0.80;;;14.40;99.90;;;;;;5038740;28;20174;-83
2021/08/08 06:12:19;;;;;;;3.00;1.00;;;14.50;99.90;;;;;;5038070;28;20268;-84
2021/08/08 06:14:45;;;;;;;4.03;1.00;;;14.50;99.90;;;;;;5039834;28;20208;-83
2021/08/08 06:17:10;;;;;;;1.00;0.70;;;14.50;99.90;;;;;;5039971;28;20706;-83
2021/08/08 06:19:36;;;;;;;3.83;0.93;;;14.50;99.90;;;;;;5040859;28;20241;-84
2021/08/08 06:22:02;;;;;;;4.40;1.07;;;14.50;99.90;;;;;;5040004;28;20587;-83
2021/08/08 06:24:28;;;;;;;1.90;0.97;;;14.50;99.90;;;;;;5039790;28;20171;-83
2021/08/08 06:26:53;;;;;;;1.00;0.83;;;14.50;99.90;;;;;;5039124;28;20213;-84
2021/08/08 06:29:19;;;;;;;2.27;0.80;;;14.60;99.90;;;;;;5038640;28;20273;-83
2021/08/08 06:31:45;;;;;;;1.00;0.70;;;14.60;99.90;;;;;;5039383;28;20253;-83
2021/08/08 06:34:10;;;;;;;2.40;0.80;;;14.60;99.90;;;;;;5039238;28;20536;-83
2021/08/08 06:36:36;;;;;;;0.70;0.60;;;14.60;99.90;;;;;;5040440;28;20664;-83
2021/08/08 06:39:05;;;;;;;0.93;0.60;;;14.60;99.90;;;;;;5039557;28;20703;-83
2021/08/08 06:41:34;;;;;;;0.80;0.80;;;14.60;99.90;;;;;;5041566;28;20734;-83
2021/08/08 06:44:00;;;;;;;1.07;0.80;;;14.70;99.90;;;;;;5040789;28;20668;-83
2021/08/08 06:46:26;;;;;;;2.27;0.97;;;14.70;99.90;;;;;;5039842;28;20589;-83
2021/08/08 06:48:52;;;;;;;4.33;1.00;;;14.70;99.90;;;;;;5038356;28;20170;-83
2021/08/08 06:51:17;;;;;;;1.47;1.10;;;14.70;99.90;;;;;;5038427;28;20644;-83
2021/08/08 06:53:43;;;;;;;2.37;1.17;;;14.80;99.90;;;;;;5037303;28;20174;-83
2021/08/08 06:56:09;;;;;;;2.27;1.13;;;14.80;99.90;;;;;;5036027;28;20210;-83
2021/08/08 06:58:34;;;;;;;2.03;1.03;;;14.90;99.90;;;;;;5036380;28;20556;-83
2021/08/08 07:01:00;;;;;;;2.17;0.90;;;14.90;99.90;;;;;;5036912;28;20186;-82
2021/08/08 07:03:26;;;;;;;1.17;0.93;;;14.90;99.90;;;;;;5036650;28;20197;-83
2021/08/08 07:05:51;;;;;;;2.37;0.93;;;15.00;99.90;;;;;;5037963;28;20194;-83
2021/08/08 07:08:17;;;;;;;1.80;0.90;;;15.00;99.90;;;;;;5043715;28;20178;-84
2021/08/08 07:10:43;;;;;;;1.00;0.83;;;15.00;99.90;;;;;;5043169;28;20205;-83
2021/08/08 07:13:08;;;;;;;3.60;0.80;;;15.10;99.90;;;;;;5040955;28;20174;-83
2021/08/08 07:15:34;;;;;;;2.47;1.10;;;15.10;99.90;;;;;;5039878;28;20672;-83
2021/08/08 07:17:59;;;;;;;1.63;0.77;;;15.10;99.90;;;;;;5039697;28;20183;-83
2021/08/08 07:20:25;;;;;;;2.50;0.70;;;15.10;99.90;;;;;;5039372;28;20178;-83
2021/08/08 07:22:51;;;;;;;1.20;0.87;;;15.20;99.90;;;;;;5040353;28;20212;-83
2021/08/08 07:25:17;;;;;;;3.20;1.30;;;15.30;99.90;;;;;;5040575;28;20194;-83
2021/08/08 07:27:42;;;;;;;1.57;0.70;;;15.30;99.90;;;;;;5039004;28;20174;-84
2021/08/08 07:30:09;;;;;;;2.23;0.87;;;15.30;99.90;;;;;;5039411;28;20193;-83
2021/08/08 07:32:34;;;;;;;1.63;1.10;;;15.30;99.90;;;;;;5038776;28;20270;-83
2021/08/08 07:35:02;;;;;;;1.97;0.90;;;15.40;99.90;;;;;;5038377;28;20234;-83
2021/08/08 07:37:28;;;;;;;2.90;1.10;;;15.50;99.90;;;;;;5040307;28;20242;-83
2021/08/08 07:39:53;;;;;;;3.13;1.03;;;15.50;99.90;;;;;;5040125;28;20219;-83
2021/08/08 07:42:19;;;;;;;1.67;1.00;;;15.60;99.90;;;;;;5038254;28;20739;-83
2021/08/08 07:44:45;;;;;;;2.03;0.93;;;15.70;99.90;;;;;;5038996;28;20226;-83
2021/08/08 07:47:15;;;;;;;4.30;1.00;;;15.80;99.90;;;;;;5038653;28;20175;-83
2021/08/08 07:49:41;;;;;;;2.17;1.07;;;15.80;99.90;;;;;;5039066;28;20663;-83
2021/08/08 07:52:07;;;;;;;1.03;0.90;;;15.90;99.90;;;;;;5039113;28;20178;-83
2021/08/08 07:54:32;;;;;;;3.30;1.00;;;15.90;99.90;;;;;;5039872;28;20243;-83
2021/08/08 07:56:58;;;;;;;1.60;0.80;;;15.90;99.90;;;;;;5040121;28;20189;-83
2021/08/08 07:59:23;;;;;;;4.47;0.90;;;15.90;99.90;;;;;;5038358;28;20178;-83
2021/08/08 08:01:49;;;;;;;1.20;0.80;;;15.90;99.90;;;;;;5039359;28;20232;-83
2021/08/08 08:04:16;;;;;;;1.30;0.90;;;15.90;99.90;;;;;;5038372;28;20581;-83
2021/08/08 08:06:42;;;;;;;2.33;0.80;;;15.90;99.90;;;;;;5038362;28;20198;-83
2021/08/08 08:09:08;;;;;;;3.07;1.07;;;15.90;99.90;;;;;;5039735;28;20178;-81
2021/08/08 08:11:33;;;;;;;1.40;0.90;;;15.90;99.90;;;;;;5039229;28;20579;-83
2021/08/08 08:13:59;;;;;;;3.07;0.80;;;15.90;99.90;;;;;;5038252;28;20252;-83
2021/08/08 08:16:25;;;;;;;2.97;0.90;;;15.90;99.90;;;;;;5038405;28;20718;-84
2021/08/08 08:18:50;;;;;;;1.13;0.60;;;15.90;99.90;;;;;;5038226;28;20252;-83
2021/08/08 08:21:16;;;;;;;1.30;0.70;;;16.00;99.90;;;;;;5038044;28;20202;-83
2021/08/08 08:23:42;;;;;;;4.63;1.00;;;16.00;99.90;;;;;;5039007;28;20176;-83
2021/08/08 08:26:07;;;;;;;1.30;0.90;;;16.10;99.90;;;;;;5038470;28;20194;-83
2021/08/08 08:28:33;;;;;;;0.80;0.70;;;16.10;99.90;;;;;;5039605;28;20181;-83
2021/08/08 08:30:59;;;;;;;3.53;1.00;;;16.20;99.90;;;;;;5039099;28;20265;-83
2021/08/08 08:33:25;;;;;;;4.40;1.30;;;16.30;99.90;;;;;;5037644;28;20189;-83
2021/08/08 08:35:51;;;;;;;2.73;1.03;;;16.40;99.90;;;;;;5039261;28;20286;-83
2021/08/08 08:38:17;;;;;;;2.17;0.90;;;16.50;99.90;;;;;;5038008;28;20185;-83
2021/08/08 08:40:44;;;;;;;1.43;0.80;;;16.50;99.90;;;;;;5039192;28;20608;-83
2021/08/08 08:43:10;;;;;;;1.40;0.83;;;16.50;99.90;;;;;;5039009;28;20212;-83
2021/08/08 08:45:39;;;;;;;2.07;1.10;;;16.50;99.90;;;;;;5039229;28;20216;-84
2021/08/08 08:48:07;;;;;;;2.50;1.00;;;16.50;99.90;;;;;;5037702;28;20174;-83
2021/08/08 08:50:37;;;;;;;2.47;0.80;;;16.60;99.90;;;;;;5039214;28;20213;-83
2021/08/08 08:53:03;;;;;;;5.13;0.90;;;16.60;99.90;;;;;;5038912;28;20575;-83
2021/08/08 08:55:30;;;;;;;3.00;1.00;;;16.60;99.90;;;;;;5038269;28;20206;-83
2021/08/08 08:57:56;;;;;;;2.77;1.10;;;16.60;99.90;;;;;;5037770;28;20178;-83
2021/08/08 09:00:24;;;;;;;1.10;0.73;;;16.70;99.90;;;;;;5037965;28;20667;-83
2021/08/08 09:02:50;;;;;;;2.20;0.93;;;16.70;99.90;;;;;;5039099;28;20265;-83
2021/08/08 09:05:16;;;;;;;2.73;0.83;;;16.80;99.90;;;;;;5037496;28;20198;-83
2021/08/08 09:07:41;;;;;;;1.10;0.70;;;16.70;99.90;;;;;;5038852;28;20181;-83
2021/08/08 09:10:12;;;;;;;2.93;1.00;;;16.70;99.90;;;;;;5039282;28;20207;-83
2021/08/08 09:12:38;;;;;;;3.27;0.90;;;16.60;99.90;;;;;;5038604;28;20257;-83
2021/08/08 09:15:06;;;;;;;0.73;0.70;;;16.70;99.90;;;;;;5038697;28;20691;-83
2021/08/08 09:17:36;;;;;;;2.00;0.80;;;16.70;99.90;;;;;;5038968;28;20202;-83
2021/08/08 09:20:10;;;;;;;2.30;0.80;;;16.70;99.90;;;;;;5038885;28;20205;-83
2021/08/08 09:22:37;;;;;;;1.93;0.90;;;16.70;99.90;;;;;;5038323;28;20209;-83
2021/08/08 09:25:05;;;;;;;0.97;0.80;;;16.70;99.90;;;;;;5037664;28;20198;-83
2021/08/08 09:27:34;;;;;;;1.77;0.90;;;16.70;99.90;;;;;;5038763;28;20203;-84
2021/08/08 09:30:00;;;;;;;1.50;1.20;;;16.70;99.90;;;;;;5037122;28;20661;-83
2021/08/08 09:32:34;;;;;;;2.77;0.90;;;16.70;99.90;;;;;;5038432;28;20180;-83
2021/08/08 09:35:13;;;;;;;1.10;0.70;;;16.70;99.90;;;;;;5037370;28;20698;-83
2021/08/08 09:37:40;;;;;;;1.40;0.73;;;16.70;99.90;;;;;;5036899;28;20182;-83
2021/08/08 09:40:15;;;;;;;2.50;0.70;;;16.60;99.90;;;;;;5038528;28;20209;-83
2021/08/08 09:42:45;;;;;;;2.03;1.03;;;16.60;99.90;;;;;;5036648;28;20587;-83
2021/08/08 09:45:14;;;;;;;1.23;0.90;;;16.50;99.90;;;;;;5036594;28;20222;-83
2021/08/08 09:47:43;;;;;;;2.93;0.90;;;16.50;99.90;;;;;;5036666;28;20178;-83
2021/08/08 09:50:14;;;;;;;2.63;1.03;;;16.50;99.90;;;;;;5038068;28;20589;-83
2021/08/08 09:52:41;;;;;;;2.03;0.90;;;16.50;99.90;;;;;;5036689;28;20183;-83
2021/08/08 09:55:34;;;;;;;4.37;1.03;;;16.40;99.90;;;;;;5036018;28;20736;-83
2021/08/08 09:58:10;;;;;;;2.00;0.90;;;16.50;99.90;;;;;;5035419;28;20620;-83
2021/08/08 10:00:38;;;;;;;1.30;1.10;;;16.50;99.90;;;;;;5036305;28;20178;-83
2021/08/08 10:03:06;;;;;;;2.63;1.20;;;16.50;99.90;;;;;;5034537;28;20309;-83
2021/08/08 10:05:38;;;;;;;1.57;1.03;;;16.50;99.90;;;;;;5035103;28;20259;-83
2021/08/08 10:08:17;;;;;;;0.93;0.83;;;16.60;99.90;;;;;;5034936;28;20178;-83
2021/08/08 10:10:45;;;;;;;2.83;1.30;;;16.60;99.90;;;;;;5034362;28;20530;-83
2021/08/08 10:13:38;;;;;;;1.43;1.03;;;16.60;99.90;;;;;;5034530;28;20645;-82
2021/08/08 10:16:09;;;;;;;1.37;1.00;;;16.70;99.90;;;;;;5039264;28;20201;-83
2021/08/08 10:18:41;;;;;;;1.80;0.70;;;16.70;99.90;;;;;;5036483;28;20186;-83
2021/08/08 10:21:09;;;;;;;3.23;0.80;;;16.80;99.90;;;;;;5036641;28;20193;-83
2021/08/08 10:23:36;;;;;;;2.13;1.00;;;16.90;99.90;;;;;;5037788;28;20174;-83
2021/08/08 10:26:03;;;;;;;1.43;0.77;;;17.00;99.90;;;;;;5037065;28;20210;-83
2021/08/08 10:28:29;;;;;;;2.33;0.80;;;17.10;99.90;;;;;;5036975;28;20183;-83
2021/08/08 10:31:01;;;;;;;4.27;1.10;;;17.10;99.90;;;;;;5038439;28;20228;-83
2021/08/08 10:33:27;;;;;;;4.37;1.43;;;17.10;99.90;;;;;;5036652;28;20208;-83
2021/08/08 10:35:55;;;;;;;1.13;0.73;;;17.10;99.90;;;;;;5038022;28;20197;-83
2021/08/08 10:38:21;;;;;;;2.23;1.00;;;17.10;99.90;;;;;;5038366;28;20640;-83
2021/08/08 10:40:47;;;;;;;1.77;1.00;;;17.20;99.90;;;;;;5036563;28;20245;-83
2021/08/08 10:43:25;;;;;;;1.60;1.13;;;17.20;99.90;;;;;;5037770;28;20358;-83
2021/08/08 10:46:03;;;;;;;2.70;1.00;;;17.30;99.90;;;;;;5037151;28;20218;-83
2021/08/08 10:48:35;;;;;;;2.50;1.33;;;17.40;99.90;;;;;;5037131;28;20252;-83
2021/08/08 10:51:00;;;;;;;3.17;1.27;;;17.40;99.90;;;;;;5037448;28;20593;-83
2021/08/08 10:53:28;;;;;;;2.00;0.87;;;17.40;99.90;;;;;;5039565;28;20233;-83
2021/08/08 10:56:07;;;;;;;3.27;1.00;;;17.40;99.90;;;;;;5039598;28;20690;-83
2021/08/08 10:58:38;;;;;;;2.27;0.90;;;17.30;99.90;;;;;;5038433;28;20179;-84
2021/08/08 11:01:34;;;;;;;5.93;1.00;;;17.10;99.90;;;;;;5035970;28;20213;-83
2021/08/08 11:04:06;;;;;;;2.13;1.30;;;16.90;99.90;;;;;;5031395;28;20188;-83
2021/08/08 11:06:31;;;;;;;1.40;1.07;;;16.80;99.90;;;;;;5036368;28;20547;-83
2021/08/08 11:09:02;;;;;;;3.27;0.93;;;16.70;99.90;;;;;;5037320;28;20702;-83
2021/08/08 11:11:29;;;;;;;2.13;0.90;;;16.60;99.90;;;;;;5038041;28;20179;-83
2021/08/08 11:14:14;;;;;;;1.70;1.00;;;16.50;99.90;;;;;;5036541;28;20182;-83
2021/08/08 11:16:45;;;;;;;3.17;1.17;;;16.50;99.90;;;;;;5036258;28;20209;-83
2021/08/08 11:19:12;;;;;;;2.50;0.90;;;16.40;99.90;;;;;;5037558;28;20186;-83
2021/08/08 11:21:39;;;;;;;1.70;0.90;;;16.30;99.90;;;;;;5036013;28;20799;-83
2021/08/08 11:24:10;;;;;;;1.57;0.90;;;16.30;99.90;;;;;;5035295;28;20178;-83
2021/08/08 11:26:36;;;;;;;3.17;0.80;;;16.20;99.90;;;;;;5036721;28;20190;-84
2021/08/08 11:29:04;;;;;;;4.50;1.00;;;16.10;99.90;;;;;;5038012;28;20175;-84
2021/08/08 11:31:32;;;;;;;1.87;1.27;;;16.10;99.90;;;;;;5038296;28;20246;-83
2021/08/08 11:34:00;;;;;;;2.17;1.30;;;16.10;99.90;;;;;;5036637;28;20182;-83
2021/08/08 11:36:34;;;;;;;2.97;1.10;;;16.00;99.90;;;;;;5039022;28;20252;-84
2021/08/08 11:39:03;;;;;;;1.70;1.03;;;15.90;99.90;;;;;;5037077;28;20637;-83
2021/08/08 11:41:29;;;;;;;2.30;1.03;;;15.90;99.90;;;;;;5038897;28;20241;-84
2021/08/08 11:44:07;;;;;;;2.27;1.27;;;16.10;99.90;;;;;;5037357;28;20178;-83
2021/08/08 11:46:34;;;;;;;1.87;1.30;;;16.40;99.90;;;;;;5038564;28;20247;-83
2021/08/08 11:48:59;;;;;;;2.80;1.17;;;16.50;99.90;;;;;;5037616;28;20170;-83
2021/08/08 11:51:25;;;;;;;2.57;1.03;;;16.70;99.90;;;;;;5035759;28;20188;-83
2021/08/08 11:53:55;;;;;;;4.33;1.13;;;16.70;99.90;;;;;;5039512;28;20205;-83
2021/08/08 11:56:24;;;;;;;1.57;1.00;;;16.80;99.90;;;;;;5039193;28;20256;-83
2021/08/08 11:58:55;;;;;;;2.60;0.90;;;17.00;99.90;;;;;;5039348;28;20194;-81
2021/08/08 12:01:23;;;;;;;4.23;1.00;;;17.30;99.90;;;;;;5039026;28;20209;-81
2021/08/08 12:03:54;;;;;;;4.50;1.17;;;17.60;99.90;;;;;;5040160;28;20236;-81
2021/08/08 12:06:24;;;;;;;2.00;1.00;;;17.90;99.90;;;;;;5040364;28;20202;-81
2021/08/08 12:08:53;;;;;;;1.43;0.97;;;18.20;99.90;;;;;;5041188;28;20170;-81
2021/08/08 12:11:21;;;;;;;1.90;0.90;;;18.30;99.90;;;;;;5041206;28;20244;-81
2021/08/08 12:14:03;;;;;;;3.63;1.03;;;18.40;99.90;;;;;;5041892;28;20192;-81
2021/08/08 12:16:37;;;;;;;1.73;1.00;;;18.40;99.90;;;;;;5040283;28;20203;-81
2021/08/08 12:19:06;;;;;;;1.50;0.90;;;18.60;99.90;;;;;;5041311;28;20187;-81
2021/08/08 12:21:40;;;;;;;1.97;0.90;;;18.90;99.90;;;;;;5041393;28;20277;-82
2021/08/08 12:24:10;;;;;;;4.13;1.10;;;19.40;99.90;;;;;;5039518;28;20661;-84
2021/08/08 12:26:40;;;;;;;1.37;1.00;;;19.80;99.90;;;;;;5042106;28;20664;-82
2021/08/08 12:29:06;;;;;;;1.93;0.90;;;20.20;99.90;;;;;;5041162;28;20511;-82
2021/08/08 12:31:41;;;;;;;2.03;0.80;;;20.60;99.90;;;;;;5041091;28;20269;-82
2021/08/08 12:34:09;;;;;;;2.50;1.07;;;20.50;99.90;;;;;;5040178;28;20248;-82
2021/08/08 12:36:43;;;;;;;1.80;0.90;;;19.90;99.90;;;;;;5042032;28;20202;-82
2021/08/08 12:39:09;;;;;;;1.03;0.80;;;19.50;99.90;;;;;;5040624;28;20675;-82
2021/08/08 12:41:41;;;;;;;1.87;0.97;;;19.30;99.90;;;;;;5042199;28;20197;-82
2021/08/08 12:44:08;;;;;;;1.63;0.90;;;19.30;99.90;;;;;;5041503;28;20182;-82
2021/08/08 12:46:39;;;;;;;4.20;1.00;;;19.20;99.90;;;;;;5044035;28;20198;-82
2021/08/08 12:49:10;;;;;;;1.13;0.90;;;19.20;99.90;;;;;;5042184;28;20200;-82